Time;durP1;ratioP1;P1;durP2;ratioP2;P2;SDS_P1;SDS_P2;PMS_P1;PMS_P2;Temp;Humidity;BMP_temperature;BMP_pressure;BME280_temperature;BME280_humidity;BME280_pressure;Samples;Min_cycle;Max_cycle;Signal;HPM_P1;HPM_P2
2023/04/12 00:01:04;;;;;;;4.13;1.83;;;;;;;1.70;100.00;98043.66;3240892;22;20086;-82
2023/04/12 00:02:20;;;;;;;2.75;1.63;;;;;;;1.71;100.00;98042.78;3240612;22;20046;-82
2023/04/12 00:03:36;;;;;;;4.57;1.98;;;;;;;1.95;100.00;98047.09;3240809;22;20035;-84
2023/04/12 00:04:56;;;;;;;4.60;2.10;;;;;;;2.11;100.00;98045.41;3240556;22;20019;-83
2023/04/12 00:06:12;;;;;;;4.30;1.70;;;;;;;2.09;100.00;98041.09;3240563;22;20024;-83
2023/04/12 00:07:28;;;;;;;4.07;2.03;;;;;;;2.11;100.00;98045.41;3240382;22;20593;-83
2023/04/12 00:08:45;;;;;;;3.70;1.90;;;;;;;2.20;100.00;98049.69;3240578;22;20054;-83
2023/04/12 00:10:02;;;;;;;4.10;2.03;;;;;;;2.28;100.00;98051.38;3240978;22;20031;-85
2023/04/12 00:11:17;;;;;;;3.90;2.03;;;;;;;2.28;100.00;98044.50;3240889;22;20026;-84
2023/04/12 00:12:33;;;;;;;5.78;2.53;;;;;;;2.35;100.00;98046.22;3240872;22;20031;-83
2023/04/12 00:13:48;;;;;;;4.35;2.47;;;;;;;2.11;100.00;98047.97;3240708;22;20027;-83
2023/04/12 00:15:04;;;;;;;6.72;2.97;;;;;;;2.15;100.00;98038.47;3241138;22;20069;-82
2023/04/12 00:16:20;;;;;;;5.90;2.70;;;;;;;2.33;100.00;98045.34;3240473;22;20052;-83
2023/04/12 00:17:36;;;;;;;6.47;3.38;;;;;;;2.04;100.00;98045.41;3242220;22;20031;-83
2023/04/12 00:18:51;;;;;;;7.50;3.22;;;;;;;2.27;100.00;98045.38;3241745;22;20030;-84
2023/04/12 00:20:15;;;;;;;6.80;3.13;;;;;;;2.10;100.00;98035.06;3240840;22;20044;-83
2023/04/12 00:21:31;;;;;;;6.93;3.47;;;;;;;1.90;100.00;98035.94;3240435;22;20015;-83
2023/04/12 00:22:46;;;;;;;5.70;2.97;;;;;;;1.74;100.00;98036.75;3241158;22;20020;-82
2023/04/12 00:24:02;;;;;;;7.10;3.33;;;;;;;1.76;100.00;98032.47;3240880;22;20028;-82
2023/04/12 00:25:18;;;;;;;8.20;3.75;;;;;;;1.75;100.00;98026.44;3224115;23;20295;-83
2023/04/12 00:26:33;;;;;;;7.72;3.50;;;;;;;1.72;100.00;98018.72;3230266;22;20054;-83
2023/04/12 00:27:49;;;;;;;5.70;3.50;;;;;;;1.92;100.00;98021.28;3240608;22;20023;-82
2023/04/12 00:29:04;;;;;;;10.85;4.28;;;;;;;2.06;100.00;98020.44;3240362;22;20019;-83
2023/04/12 00:30:20;;;;;;;4.70;2.80;;;;;;;1.67;100.00;98022.97;3240553;22;20020;-83
2023/04/12 00:31:36;;;;;;;4.15;2.30;;;;;;;1.44;100.00;98015.22;3239873;22;20513;-83
2023/04/12 00:32:52;;;;;;;5.63;2.20;;;;;;;1.41;100.00;98011.78;3240619;22;20024;-83
2023/04/12 00:34:07;;;;;;;3.40;2.03;;;;;;;1.46;100.00;98011.78;3240631;22;20043;-83
2023/04/12 00:35:23;;;;;;;3.45;1.75;;;;;;;1.35;100.00;98014.34;3240508;22;20023;-83
2023/04/12 00:36:38;;;;;;;4.20;1.95;;;;;;;1.34;100.00;98009.19;3240247;22;20183;-84
2023/04/12 00:37:54;;;;;;;3.55;2.25;;;;;;;1.63;100.00;98000.63;3241205;22;20324;-83
2023/04/12 00:39:09;;;;;;;3.40;1.80;;;;;;;1.29;100.00;98005.75;3240611;22;20543;-83
2023/04/12 00:40:25;;;;;;;3.45;1.92;;;;;;;1.31;100.00;98004.88;3241279;22;20054;-82
2023/04/12 00:41:40;;;;;;;4.95;2.13;;;;;;;1.64;100.00;98004.91;3240577;22;20027;-84
2023/04/12 00:42:56;;;;;;;6.50;2.30;;;;;;;1.72;100.00;98007.50;3240262;22;20020;-85
2023/04/12 00:44:12;;;;;;;3.92;2.10;;;;;;;1.79;100.00;98015.25;3237638;22;20817;-84
2023/04/12 00:45:27;;;;;;;4.65;2.20;;;;;;;1.77;100.00;98005.81;3240599;22;20364;-84
2023/04/12 00:46:45;;;;;;;5.85;2.20;;;;;;;1.68;100.00;98004.09;3240448;22;20122;-83
2023/04/12 00:48:00;;;;;;;4.82;2.17;;;;;;;1.62;100.00;98002.34;3240360;22;20121;-84
2023/04/12 00:49:16;;;;;;;4.93;2.65;;;;;;;1.74;100.00;98005.78;3240606;22;20031;-83
2023/04/12 00:50:31;;;;;;;3.47;1.95;;;;;;;1.65;100.00;97999.78;3240317;22;20030;-83
2023/04/12 00:51:47;;;;;;;3.08;1.88;;;;;;;1.58;100.00;97997.19;3241830;22;20030;-83
2023/04/12 00:53:03;;;;;;;4.60;1.98;;;;;;;1.23;100.00;97991.97;3241626;22;20020;-83
2023/04/12 00:54:19;;;;;;;3.55;1.83;;;;;;;1.12;100.00;97989.38;3240323;22;20019;-83
2023/04/12 00:55:35;;;;;;;6.10;1.80;;;;;;;1.17;100.00;97993.66;3241675;22;20023;-83
2023/04/12 00:56:50;;;;;;;3.10;1.40;;;;;;;1.31;100.00;97994.56;3240440;22;20031;-83
2023/04/12 00:58:06;;;;;;;3.03;1.60;;;;;;;1.40;100.00;97997.16;3241397;22;20474;-84
2023/04/12 00:59:22;;;;;;;3.83;1.75;;;;;;;1.55;100.00;97995.47;3240540;22;20016;-83
2023/04/12 01:00:38;;;;;;;2.70;1.60;;;;;;;1.65;100.00;97998.91;3240866;22;20020;-83
2023/04/12 01:01:55;;;;;;;3.47;1.67;;;;;;;1.55;100.00;97996.34;3241002;22;20038;-82
2023/04/12 01:03:12;;;;;;;2.80;1.55;;;;;;;1.13;100.00;98000.56;3240974;22;20016;-83
2023/04/12 01:04:28;;;;;;;3.63;1.50;;;;;;;1.02;100.00;97994.50;3241039;22;20020;-83
2023/04/12 01:06:16;;;;;;;2.70;1.67;;;;;;;1.13;100.00;98008.28;3240170;22;20468;-84
2023/04/12 01:07:53;;;;;;;4.32;1.60;;;;;;;1.01;100.00;97998.78;3240478;22;20024;-83
2023/04/12 01:09:29;;;;;;;3.60;1.73;;;;;;;1.13;100.00;97995.41;3240451;22;20026;-83
2023/04/12 01:11:00;;;;;;;3.78;1.85;;;;;;;1.34;100.00;97996.28;3240685;22;20115;-83
2023/04/12 01:12:45;;;;;;;3.58;1.83;;;;;;;1.33;100.00;97999.72;3240827;22;20220;-82
2023/04/12 01:14:16;;;;;;;3.92;2.10;;;;;;;1.58;100.00;97994.59;3240737;22;20301;-83
2023/04/12 01:15:36;;;;;;;4.22;2.17;;;;;;;1.47;100.00;97998.03;3240913;22;20047;-83
2023/04/12 01:16:57;;;;;;;4.20;2.42;;;;;;;1.47;100.00;97999.75;3240355;22;20149;-82
2023/04/12 01:18:18;;;;;;;7.32;2.47;;;;;;;1.21;100.00;97996.25;3240719;22;20028;-83
2023/04/12 01:19:56;;;;;;;5.15;2.38;;;;;;;1.32;100.00;97993.69;3240818;22;20081;-83
2023/04/12 01:21:51;;;;;;;4.47;2.22;;;;;;;1.16;100.00;97990.25;3240448;22;20030;-83
2023/04/12 01:23:21;;;;;;;4.35;2.35;;;;;;;1.20;100.00;97989.38;3204586;22;20069;-83
2023/04/12 01:25:05;;;;;;;5.95;2.15;;;;;;;1.24;100.00;97991.09;3240417;22;20066;-83
2023/04/12 01:26:44;;;;;;;9.00;2.75;;;;;;;1.02;100.00;97977.28;3197163;22;20052;-82
2023/04/12 01:28:02;;;;;;;7.07;3.15;;;;;;;0.89;100.00;97978.13;3240213;22;20337;-81
2023/04/12 01:29:20;;;;;;;5.55;2.50;;;;;;;0.93;100.00;97972.97;3240211;22;20384;-83
2023/04/12 01:30:36;;;;;;;7.07;2.95;;;;;;;0.80;100.00;97977.25;3240309;22;20077;-82
2023/04/12 01:31:56;;;;;;;5.18;2.33;;;;;;;0.73;100.00;97977.22;3240164;22;20055;-83
2023/04/12 01:33:14;;;;;;;4.22;2.47;;;;;;;0.60;100.00;97973.72;3240142;22;20050;-82
2023/04/12 01:34:32;;;;;;;3.42;1.75;;;;;;;0.54;100.00;97971.97;3241321;22;20012;-82
2023/04/12 01:35:48;;;;;;;3.15;1.90;;;;;;;0.53;100.00;97967.66;3240604;22;20470;-82
2023/04/12 01:37:05;;;;;;;3.40;1.52;;;;;;;0.54;100.00;97969.38;3241066;22;20774;-82
2023/04/12 01:38:21;;;;;;;3.60;1.63;;;;;;;0.64;100.00;97963.44;3240835;22;20024;-82
2023/04/12 01:39:36;;;;;;;3.30;2.00;;;;;;;0.77;100.00;97966.94;3240872;22;20023;-82
2023/04/12 01:40:53;;;;;;;4.35;2.40;;;;;;;1.06;100.00;97963.59;3240354;22;20373;-82
2023/04/12 01:42:08;;;;;;;2.75;1.52;;;;;;;1.35;100.00;97956.75;3240389;22;20475;-82
2023/04/12 01:43:24;;;;;;;3.13;1.60;;;;;;;0.96;100.00;97954.94;3240374;22;20038;-83
2023/04/12 01:44:39;;;;;;;2.85;1.60;;;;;;;1.03;100.00;97960.13;3239150;22;20358;-87
2023/04/12 01:45:55;;;;;;;2.15;1.30;;;;;;;0.76;100.00;97954.88;3239085;22;20023;-83
2023/04/12 01:47:11;;;;;;;4.25;1.58;;;;;;;0.59;100.00;97946.22;3240351;22;20019;-82
2023/04/12 01:48:27;;;;;;;2.08;1.33;;;;;;;0.62;100.00;97944.53;3240298;22;20085;-82
2023/04/12 01:50:12;;;;;;;3.50;1.80;;;;;;;0.60;100.00;97940.22;3241345;22;20402;-82
2023/04/12 01:51:43;;;;;;;2.80;1.48;;;;;;;0.93;100.00;97942.03;3240305;22;20521;-83
2023/04/12 01:53:17;;;;;;;3.80;2.20;;;;;;;0.97;100.00;97950.66;3240712;22;20415;-83
2023/04/12 01:54:37;;;;;;;3.60;2.28;;;;;;;1.07;100.00;97947.25;3241209;22;20772;-83
2023/04/12 01:55:58;;;;;;;3.85;2.28;;;;;;;0.86;100.00;97947.19;3240354;22;20038;-83
2023/04/12 01:57:14;;;;;;;3.13;2.22;;;;;;;0.76;100.00;97949.72;3240837;22;20094;-83
2023/04/12 01:58:30;;;;;;;3.22;2.17;;;;;;;0.54;100.00;97951.34;3240660;22;20024;-83
2023/04/12 01:59:47;;;;;;;9.35;2.47;;;;;;;0.52;100.00;97953.94;3240588;22;20066;-83
2023/04/12 02:01:05;;;;;;;6.72;2.28;;;;;;;0.42;100.00;97954.75;3239972;22;20448;-83
2023/04/12 02:02:21;;;;;;;23.63;2.85;;;;;;;0.48;100.00;97954.75;3240365;22;20024;-83
2023/04/12 02:03:41;;;;;;;18.95;3.05;;;;;;;0.76;100.00;97946.31;3240999;22;20150;-82
2023/04/12 02:04:59;;;;;;;28.70;3.53;;;;;;;0.80;100.00;97948.91;3240301;22;20124;-82
2023/04/12 02:06:17;;;;;;;46.47;3.80;;;;;;;0.55;100.00;97950.50;3241456;22;20027;-83
2023/04/12 02:07:34;;;;;;;6.82;2.92;;;;;;;0.68;100.00;97946.28;3240236;22;20517;-83
2023/04/12 02:08:57;;;;;;;10.52;3.35;;;;;;;0.44;100.00;97949.63;3240583;22;20110;-83
2023/04/12 02:10:13;;;;;;;;;;;;;;;0.37;100.00;97952.16;3224528;23;20384;-82
2023/04/12 02:11:29;;;;;;;7.80;3.35;;;;;;;0.55;100.00;97958.22;3231665;22;19939;-83
2023/04/12 02:12:45;;;;;;;10.10;3.75;;;;;;;0.58;100.00;97953.13;3240987;22;20072;-83
2023/04/12 02:14:00;;;;;;;8.32;3.60;;;;;;;0.40;100.00;97948.75;3241135;22;20035;-83
2023/04/12 02:15:17;;;;;;;7.50;3.50;;;;;;;0.31;100.00;97946.97;3241714;22;20456;-84
2023/04/12 02:16:33;;;;;;;6.13;3.13;;;;;;;0.25;100.00;97949.50;3241572;22;20172;-83
2023/04/12 02:17:52;;;;;;;9.60;3.15;;;;;;;0.29;100.00;97940.97;3241472;22;20511;-83
2023/04/12 02:19:09;;;;;;;6.13;2.97;;;;;;;0.38;100.00;97947.88;3242134;22;20026;-82
2023/04/12 02:20:26;;;;;;;6.03;3.42;;;;;;;0.52;100.00;97943.66;3241303;22;20074;-83
2023/04/12 02:21:43;;;;;;;9.15;3.13;;;;;;;0.44;100.00;97936.75;3241748;22;20103;-83
2023/04/12 02:22:59;;;;;;;7.20;3.58;;;;;;;0.41;100.00;97935.00;3225910;23;20024;-83
2023/04/12 02:24:15;;;;;;;6.20;3.25;;;;;;;0.46;100.00;97927.31;3231904;22;20023;-82
2023/04/12 02:25:32;;;;;;;7.45;3.40;;;;;;;0.41;100.00;97930.69;3242498;22;20016;-83
2023/04/12 02:26:48;;;;;;;6.32;2.92;;;;;;;0.41;100.00;97935.00;3242087;22;20019;-82
2023/04/12 02:28:05;;;;;;;5.65;3.35;;;;;;;0.45;100.00;97933.31;3241848;22;20431;-83
2023/04/12 02:29:21;;;;;;;5.03;2.88;;;;;;;0.52;100.00;97937.63;3242410;22;20016;-83
2023/04/12 02:30:37;;;;;;;6.78;3.22;;;;;;;0.26;100.00;97938.34;3241387;22;20424;-83
2023/04/12 02:31:52;;;;;;;7.28;3.22;;;;;;;0.43;100.00;97940.16;3240867;22;20039;-83
2023/04/12 02:33:08;;;;;;;6.03;2.85;;;;;;;0.47;100.00;97937.59;3241493;22;20026;-83
2023/04/12 02:34:23;;;;;;;5.68;2.90;;;;;;;0.61;100.00;97932.50;3241612;22;20344;-83
2023/04/12 02:35:39;;;;;;;6.40;3.05;;;;;;;0.50;100.00;97926.44;3241719;22;20101;-83
2023/04/12 02:36:54;;;;;;;4.28;2.72;;;;;;;0.47;100.00;97918.72;3241284;22;20024;-83
2023/04/12 02:38:10;;;;;;;4.65;2.50;;;;;;;0.42;100.00;97921.28;3242031;22;20529;-83
2023/04/12 02:39:28;;;;;;;5.07;2.78;;;;;;;0.43;100.00;97923.00;3242542;22;20795;-83
2023/04/12 02:40:44;;;;;;;5.85;2.95;;;;;;;0.46;100.00;97928.16;3241928;22;20046;-83
2023/04/12 02:42:00;;;;;;;6.47;3.08;;;;;;;0.60;100.00;97919.63;3241310;22;20050;-83
2023/04/12 02:43:16;;;;;;;6.00;2.67;;;;;;;0.59;100.00;97912.75;3241831;22;20019;-83
2023/04/12 02:44:31;;;;;;;21.35;4.20;;;;;;;0.58;100.00;97909.31;3242151;22;20024;-84
2023/04/12 02:45:47;;;;;;;11.77;3.60;;;;;;;0.62;100.00;97910.16;3241735;22;20019;-83
2023/04/12 02:47:03;;;;;;;24.13;3.38;;;;;;;0.53;100.00;97909.31;3238014;22;20051;-83
2023/04/12 02:48:18;;;;;;;23.92;3.83;;;;;;;0.48;100.00;97905.81;3241726;22;20802;-83
2023/04/12 02:49:34;;;;;;;10.23;3.47;;;;;;;0.52;100.00;97902.44;3241494;22;20048;-82
2023/04/12 02:50:49;;;;;;;6.80;3.00;;;;;;;0.37;100.00;97904.94;3241408;22;20103;-82
2023/04/12 02:52:05;;;;;;;7.18;3.33;;;;;;;0.48;100.00;97912.72;3241230;22;20545;-83
2023/04/12 02:53:20;;;;;;;5.45;2.65;;;;;;;0.45;100.00;97910.97;3241866;22;20031;-83
2023/04/12 02:54:36;;;;;;;22.80;3.22;;;;;;;0.38;100.00;97910.09;3241145;22;20051;-83
2023/04/12 02:55:52;;;;;;;17.00;3.13;;;;;;;0.46;100.00;97910.13;3241730;22;20031;-83
2023/04/12 02:57:07;;;;;;;35.15;4.32;;;;;;;0.53;100.00;97908.44;3241464;22;20027;-82
2023/04/12 02:58:23;;;;;;;43.50;4.43;;;;;;;0.41;100.00;97910.09;3241742;22;20024;-83
2023/04/12 02:59:38;;;;;;;9.32;3.67;;;;;;;0.41;100.00;97907.50;3241338;22;20016;-83
2023/04/12 03:00:54;;;;;;;15.20;3.63;;;;;;;0.55;100.00;97907.59;3241639;22;20108;-82
2023/04/12 03:02:10;;;;;;;22.05;4.25;;;;;;;0.52;100.00;97899.84;3241449;22;20020;-83
2023/04/12 03:03:27;;;;;;;11.68;3.63;;;;;;;0.60;100.00;97893.84;3241604;22;20452;-83
2023/04/12 03:04:45;;;;;;;16.45;4.07;;;;;;;0.53;100.00;97896.41;3241651;22;20020;-83
2023/04/12 03:06:01;;;;;;;8.75;4.13;;;;;;;0.54;100.00;97897.25;3241697;22;20030;-82
2023/04/12 03:07:18;;;;;;;21.50;4.82;;;;;;;0.62;100.00;97889.56;3241382;22;20360;-83
2023/04/12 03:08:34;;;;;;;52.25;4.65;;;;;;;0.63;100.00;97889.56;3241159;22;20337;-82
2023/04/12 03:09:50;;;;;;;84.47;5.07;;;;;;;0.59;100.00;97886.97;3241546;22;20110;-82
2023/04/12 03:11:06;;;;;;;74.85;4.82;;;;;;;0.57;100.00;97889.56;3241453;22;20043;-82
2023/04/12 03:12:21;;;;;;;36.53;4.13;;;;;;;0.57;100.00;97887.00;3241465;22;20069;-82
2023/04/12 03:13:37;;;;;;;19.27;4.88;;;;;;;0.52;100.00;97880.94;3241301;22;20367;-83
2023/04/12 03:14:53;;;;;;;35.17;4.82;;;;;;;0.49;100.00;97873.22;3241613;22;20034;-82
2023/04/12 03:16:24;;;;;;;29.75;4.78;;;;;;;0.33;100.00;97870.59;3241168;22;20023;-82
2023/04/12 03:17:39;;;;;;;20.38;3.88;;;;;;;0.22;100.00;97873.13;3241659;22;20039;-82
2023/04/12 03:18:55;;;;;;;38.85;4.78;;;;;;;0.23;100.00;97868.81;3241040;22;20043;-82
2023/04/12 03:20:12;;;;;;;53.90;4.95;;;;;;;0.25;100.00;97869.69;3224159;23;20024;-83
2023/04/12 03:21:28;;;;;;;58.97;5.30;;;;;;;-0.01;100.00;97866.16;3224448;23;20055;-83
2023/04/12 03:22:43;;;;;;;47.45;4.45;;;;;;;0.19;100.00;97869.69;3225833;23;20487;-83
2023/04/12 03:23:59;;;;;;;51.13;4.50;;;;;;;0.19;100.00;97870.53;3225389;23;20479;-83
2023/04/12 03:25:17;;;;;;;9.73;2.83;;;;;;;0.21;100.00;97873.13;3224931;23;20077;-82
2023/04/12 03:26:33;;;;;;;33.70;3.78;;;;;;;0.13;100.00;97873.09;3225382;22;20027;-82
2023/04/12 03:27:49;;;;;;;8.52;3.20;;;;;;;0.07;100.00;97880.75;3225186;22;20337;-82
2023/04/12 03:29:07;;;;;;;20.63;3.40;;;;;;;-0.01;100.00;97873.00;3226068;22;20066;-83
2023/04/12 03:30:23;;;;;;;19.08;3.08;;;;;;;0.06;100.00;97881.63;3225395;22;20413;-82
2023/04/12 03:31:38;;;;;;;34.22;3.10;;;;;;;-0.11;100.00;97881.53;3225407;22;20024;-82
2023/04/12 03:32:54;;;;;;;17.60;2.65;;;;;;;-0.26;100.00;97883.19;3225828;23;20178;-82
2023/04/12 03:34:10;;;;;;;14.27;2.63;;;;;;;-0.06;100.00;97878.16;3225649;22;20078;-82
2023/04/12 03:35:25;;;;;;;22.13;3.22;;;;;;;0.08;100.00;97877.34;3225243;22;20090;-82
2023/04/12 03:36:41;;;;;;;23.23;2.97;;;;;;;0.15;100.00;97875.69;3224627;23;20024;-82
2023/04/12 03:37:57;;;;;;;25.20;2.63;;;;;;;0.13;100.00;97879.06;3225227;22;20530;-82
2023/04/12 03:39:12;;;;;;;26.80;2.97;;;;;;;-0.06;100.00;97873.00;3225351;23;20035;-83
2023/04/12 03:40:28;;;;;;;45.75;3.30;;;;;;;-0.26;100.00;97878.03;3225146;23;20360;-81
2023/04/12 03:41:43;;;;;;;31.02;2.95;;;;;;;-0.15;100.00;97867.78;3225097;23;20583;-81
2023/04/12 03:42:59;;;;;;;13.60;2.33;;;;;;;-0.09;100.00;97864.41;3225162;23;20024;-80
2023/04/12 03:44:15;;;;;;;7.50;2.10;;;;;;;-0.10;100.00;97866.09;3225077;22;20348;-80
2023/04/12 03:45:30;;;;;;;45.50;3.55;;;;;;;-0.12;100.00;97866.97;3224990;22;20042;-79
2023/04/12 03:46:47;;;;;;;24.13;2.85;;;;;;;-0.02;100.00;97864.44;3225235;22;20016;-79
2023/04/12 03:48:03;;;;;;;33.10;2.30;;;;;;;0.01;100.00;97862.72;3224905;22;20070;-79
2023/04/12 03:49:20;;;;;;;21.77;2.78;;;;;;;-0.06;100.00;97867.84;3226080;22;20451;-82
2023/04/12 03:50:42;;;;;;;89.40;4.47;;;;;;;0.10;100.00;97866.19;3222025;22;20035;-82
2023/04/12 03:51:58;;;;;;;92.43;5.57;;;;;;;0.09;100.00;97866.22;3224025;23;20020;-79
2023/04/12 03:53:14;;;;;;;85.00;5.38;;;;;;;0.06;100.00;97851.59;3224436;23;20334;-79
2023/04/12 03:54:29;;;;;;;47.05;3.00;;;;;;;-0.02;100.00;97858.41;3225797;23;20027;-79
2023/04/12 03:55:45;;;;;;;44.83;3.28;;;;;;;0.07;100.00;97860.16;3225284;23;20444;-80
2023/04/12 03:57:01;;;;;;;210.40;8.90;;;;;;;-0.09;100.00;97862.66;3225081;22;20418;-79
2023/04/12 03:58:17;;;;;;;20.88;2.38;;;;;;;-0.07;100.00;97865.25;3224275;23;20364;-82
2023/04/12 03:59:33;;;;;;;33.60;2.38;;;;;;;0.00;100.00;97864.47;3225205;23;20023;-81
2023/04/12 04:00:49;;;;;;;105.07;5.80;;;;;;;0.05;100.00;97859.31;3224764;22;20439;-81
2023/04/12 04:02:04;;;;;;;51.70;4.07;;;;;;;0.02;100.00;97860.16;3225127;23;20031;-80
2023/04/12 04:03:21;;;;;;;54.65;3.33;;;;;;;-0.04;100.00;97865.28;3225054;22;20028;-81
2023/04/12 04:04:37;;;;;;;25.33;2.53;;;;;;;-0.08;100.00;97863.53;3225195;22;20043;-81
2023/04/12 04:05:53;;;;;;;27.33;3.00;;;;;;;0.00;100.00;97856.72;3225242;22;20020;-81
2023/04/12 04:07:10;;;;;;;114.07;5.57;;;;;;;0.22;100.00;97862.84;3225347;22;20024;-81
2023/04/12 04:08:26;;;;;;;50.90;4.75;;;;;;;0.25;100.00;97862.84;3225301;22;20044;-83
2023/04/12 04:09:41;;;;;;;58.08;4.97;;;;;;;0.25;100.00;97864.53;3225190;22;20031;-80
2023/04/12 04:10:58;;;;;;;11.32;3.40;;;;;;;0.40;100.00;97858.59;3225009;22;20024;-81
2023/04/12 04:12:16;;;;;;;21.90;3.85;;;;;;;0.43;100.00;97852.59;3225361;22;20034;-81
2023/04/12 04:13:32;;;;;;;158.52;7.57;;;;;;;0.36;100.00;97856.88;3224924;23;20024;-81
2023/04/12 04:14:47;;;;;;;95.97;6.93;;;;;;;0.32;100.00;97855.13;3225983;22;20055;-80
2023/04/12 04:16:09;;;;;;;37.97;3.63;;;;;;;0.25;100.00;97854.25;3224939;22;20360;-81
2023/04/12 04:17:24;;;;;;;9.52;2.50;;;;;;;0.37;100.00;97853.44;3226392;22;20426;-80
2023/04/12 04:18:39;;;;;;;33.60;3.40;;;;;;;0.20;100.00;97854.22;3224427;23;20028;-80
2023/04/12 04:19:55;;;;;;;37.90;4.63;;;;;;;0.01;100.00;97860.16;3224666;22;20314;-79
2023/04/12 04:21:13;;;;;;;12.13;2.90;;;;;;;0.01;100.00;97855.88;3238990;22;20028;-80
2023/04/12 04:22:28;;;;;;;26.95;3.08;;;;;;;0.23;100.00;97854.25;3241713;22;20099;-80
2023/04/12 04:23:44;;;;;;;22.35;2.95;;;;;;;0.33;100.00;97854.28;3241030;22;20024;-80
2023/04/12 04:25:01;;;;;;;15.85;2.88;;;;;;;0.19;100.00;97860.22;3240665;22;20023;-80
2023/04/12 04:26:16;;;;;;;13.98;2.85;;;;;;;0.18;100.00;97860.25;3240893;22;20028;-80
2023/04/12 04:27:33;;;;;;;17.15;3.08;;;;;;;0.08;100.00;97860.19;3240132;22;20054;-79
2023/04/12 04:28:49;;;;;;;18.50;3.53;;;;;;;0.19;100.00;97855.06;3241701;22;20459;-80
2023/04/12 04:30:05;;;;;;;37.42;4.13;;;;;;;0.22;100.00;97855.13;3239944;22;20390;-80
2023/04/12 04:31:21;;;;;;;24.75;3.08;;;;;;;0.28;100.00;97857.69;3240794;22;20051;-80
2023/04/12 04:32:39;;;;;;;25.65;2.85;;;;;;;0.26;100.00;97861.09;3223618;23;20020;-79
2023/04/12 04:33:54;;;;;;;21.95;3.00;;;;;;;0.33;100.00;97857.72;3231133;22;20058;-79
2023/04/12 04:35:11;;;;;;;23.33;3.05;;;;;;;0.33;100.00;97862.00;3240300;22;20682;-79
2023/04/12 04:36:26;;;;;;;22.25;3.13;;;;;;;0.38;100.00;97862.88;3240326;22;20515;-79
2023/04/12 04:37:42;;;;;;;6.18;2.60;;;;;;;0.10;100.00;97860.22;3240592;22;20019;-79
2023/04/12 04:38:58;;;;;;;24.20;3.05;;;;;;;0.11;100.00;97859.34;3240945;22;20027;-80
2023/04/12 04:40:14;;;;;;;16.00;3.38;;;;;;;0.27;100.00;97855.97;3240314;22;20328;-81
2023/04/12 04:41:33;;;;;;;9.73;2.60;;;;;;;0.36;100.00;97857.72;3240848;22;20043;-79
2023/04/12 04:42:53;;;;;;;8.38;3.40;;;;;;;0.45;100.00;97854.31;3240777;22;20050;-80
2023/04/12 04:44:09;;;;;;;6.43;3.20;;;;;;;0.32;100.00;97850.84;3240809;22;20030;-79
2023/04/12 04:45:29;;;;;;;16.13;3.30;;;;;;;0.31;100.00;97856.84;3240353;22;20075;-79
2023/04/12 04:46:45;;;;;;;12.73;2.58;;;;;;;0.13;100.00;97853.34;3240545;22;20020;-82
2023/04/12 04:48:02;;;;;;;16.95;2.85;;;;;;;0.25;100.00;97856.81;3223954;23;20104;-79
2023/04/12 04:49:17;;;;;;;13.98;2.88;;;;;;;0.20;100.00;97864.50;3230758;22;20023;-79
2023/04/12 04:50:33;;;;;;;14.10;3.25;;;;;;;0.38;100.00;97853.44;3240595;22;20046;-79
2023/04/12 04:51:49;;;;;;;22.00;3.30;;;;;;;0.41;100.00;97858.59;3240768;22;20016;-78
2023/04/12 04:53:05;;;;;;;16.23;2.83;;;;;;;0.50;100.00;97857.78;3240500;22;20034;-79
2023/04/12 04:54:21;;;;;;;11.90;2.90;;;;;;;0.45;100.00;97862.03;3240532;22;20026;-79
2023/04/12 04:55:36;;;;;;;12.98;2.47;;;;;;;0.35;100.00;97863.72;3241151;22;20106;-80
2023/04/12 04:56:52;;;;;;;14.20;2.72;;;;;;;0.45;100.00;97868.91;3240236;22;20027;-80
2023/04/12 04:58:07;;;;;;;3.03;2.10;;;;;;;0.18;100.00;97865.38;3240963;22;20030;-79
2023/04/12 04:59:23;;;;;;;36.08;3.00;;;;;;;0.21;100.00;97867.97;3240364;22;20021;-79
2023/04/12 05:00:38;;;;;;;40.88;3.47;;;;;;;0.22;100.00;97869.69;3240853;22;20077;-80
2023/04/12 05:01:54;;;;;;;39.83;3.22;;;;;;;0.26;100.00;97867.13;3240525;22;20162;-79
2023/04/12 05:03:10;;;;;;;91.25;5.50;;;;;;;0.40;100.00;97861.19;3240782;22;20093;-79
2023/04/12 05:04:26;;;;;;;54.47;4.70;;;;;;;0.34;100.00;97856.88;3240274;22;20019;-79
2023/04/12 05:05:41;;;;;;;101.22;5.70;;;;;;;0.53;100.00;97865.50;3240751;22;20034;-79
2023/04/12 05:06:57;;;;;;;170.85;8.05;;;;;;;0.61;100.00;97862.97;3239526;22;20549;-80
2023/04/12 05:08:12;;;;;;;145.52;8.00;;;;;;;0.64;100.00;97862.97;3240763;22;20035;-80
2023/04/12 05:09:28;;;;;;;23.10;3.95;;;;;;;0.51;100.00;97861.19;3240434;22;20070;-80
2023/04/12 05:10:43;;;;;;;80.25;5.15;;;;;;;0.12;100.00;97861.06;3240905;22;20058;-79
2023/04/12 05:11:59;;;;;;;51.20;4.85;;;;;;;0.03;100.00;97855.88;3240186;22;20016;-79
2023/04/12 05:13:15;;;;;;;73.10;5.60;;;;;;;0.34;100.00;97856.88;3240558;22;20022;-79
2023/04/12 05:14:30;;;;;;;69.13;4.60;;;;;;;0.36;100.00;97852.56;3240589;22;20027;-80
2023/04/12 05:15:45;;;;;;;65.10;4.10;;;;;;;0.50;100.00;97850.06;3240880;22;20428;-80
2023/04/12 05:17:01;;;;;;;52.00;3.95;;;;;;;0.59;100.00;97846.63;3240223;22;20020;-80
2023/04/12 05:18:17;;;;;;;82.40;4.82;;;;;;;0.49;100.00;97850.03;3240624;22;20024;-78
2023/04/12 05:19:32;;;;;;;59.88;4.03;;;;;;;0.72;100.00;97850.09;3240560;22;20019;-80
2023/04/12 05:20:48;;;;;;;36.53;3.30;;;;;;;0.63;100.00;97842.34;3240013;22;20051;-78
2023/04/12 05:22:04;;;;;;;32.00;3.50;;;;;;;0.75;100.00;97846.66;3240265;22;20026;-79
2023/04/12 05:23:20;;;;;;;31.23;3.15;;;;;;;0.82;100.00;97843.22;3240397;22;20027;-78
2023/04/12 05:24:36;;;;;;;48.90;3.25;;;;;;;0.76;100.00;97840.66;3240326;22;20471;-78
2023/04/12 05:25:52;;;;;;;32.42;3.05;;;;;;;0.76;100.00;97838.06;3239761;22;20046;-78
2023/04/12 05:27:07;;;;;;;27.38;3.15;;;;;;;0.74;100.00;97834.66;3240413;22;20352;-81
2023/04/12 05:28:23;;;;;;;27.75;3.05;;;;;;;0.73;100.00;97838.09;3223088;23;20020;-79
2023/04/12 05:29:39;;;;;;;26.48;3.50;;;;;;;0.83;100.00;97835.50;3214418;23;20031;-78
2023/04/12 05:30:54;;;;;;;25.67;3.15;;;;;;;0.92;100.00;97828.66;3230156;22;20031;-79
2023/04/12 05:32:10;;;;;;;27.23;3.25;;;;;;;1.07;100.00;97833.81;3240852;22;20027;-80
2023/04/12 05:33:26;;;;;;;14.75;2.75;;;;;;;0.98;100.00;97826.06;3240202;22;20019;-79
2023/04/12 05:34:42;;;;;;;8.48;2.70;;;;;;;0.85;100.00;97825.22;3240464;22;20030;-79
2023/04/12 05:35:58;;;;;;;16.77;3.53;;;;;;;0.98;100.00;97829.53;3240875;22;20078;-79
2023/04/12 05:37:14;;;;;;;11.50;3.13;;;;;;;1.05;100.00;97814.91;3240651;22;20055;-81
2023/04/12 05:38:29;;;;;;;11.52;3.10;;;;;;;1.09;100.00;97819.19;3240270;22;20340;-79
2023/04/12 05:39:45;;;;;;;10.30;3.55;;;;;;;1.25;100.00;97816.63;3240499;22;20012;-79
2023/04/12 05:41:03;;;;;;;12.20;2.95;;;;;;;1.35;100.00;97817.47;3239719;22;20020;-80
2023/04/12 05:42:19;;;;;;;7.68;2.53;;;;;;;1.08;100.00;97819.19;3240358;22;20038;-80
2023/04/12 05:43:36;;;;;;;20.48;3.28;;;;;;;1.18;100.00;97825.19;3240539;22;20093;-81
2023/04/12 05:44:53;;;;;;;30.83;3.75;;;;;;;1.33;100.00;97820.06;3240468;22;20020;-81
2023/04/12 05:46:10;;;;;;;4.57;2.42;;;;;;;1.31;100.00;97823.50;3240280;22;20090;-83
2023/04/12 05:47:25;;;;;;;13.77;2.80;;;;;;;1.17;100.00;97819.19;3240427;22;20479;-82
2023/04/12 05:48:41;;;;;;;7.68;2.42;;;;;;;1.16;100.00;97814.03;3241652;22;20046;-82
2023/04/12 05:49:56;;;;;;;14.73;2.95;;;;;;;1.35;100.00;97809.72;3241608;22;20031;-81
2023/04/12 05:51:12;;;;;;;24.23;3.30;;;;;;;1.48;100.00;97808.84;3241532;22;20027;-81
2023/04/12 05:52:28;;;;;;;12.82;3.22;;;;;;;1.51;100.00;97806.25;3241248;22;20019;-82
2023/04/12 05:53:43;;;;;;;6.10;2.33;;;;;;;1.41;100.00;97809.72;3241525;22;20019;-83
2023/04/12 05:54:59;;;;;;;19.35;3.13;;;;;;;1.51;100.00;97810.56;3241302;22;20390;-83
2023/04/12 05:56:15;;;;;;;5.93;2.58;;;;;;;1.24;100.00;97805.44;3240310;22;20024;-82
2023/04/12 05:57:31;;;;;;;11.60;3.00;;;;;;;1.30;100.00;97801.16;3241108;22;20456;-82
2023/04/12 05:58:47;;;;;;;18.48;3.00;;;;;;;1.45;100.00;97801.13;3241584;22;20042;-82
2023/04/12 06:00:07;;;;;;;9.60;2.97;;;;;;;1.58;100.00;97794.19;3241407;22;20106;-82
2023/04/12 06:01:30;;;;;;;8.00;2.65;;;;;;;1.29;100.00;97789.13;3224910;23;20020;-81
2023/04/12 06:02:47;;;;;;;7.70;2.70;;;;;;;1.41;100.00;97792.53;3233561;22;20455;-80